NFTL/HPA METAR and TAF weather

Enter ICAO airport designator
Station Type Date Time Source
NFTL METAR 2022/06/25 21:00 UTC NOAA

NFTL 252100Z 09015KT 9999 FEW016 26/22 Q1019


Station Type Date Time Source
NFTL Decoded METAR 2022/06/25 21:00 UTC NOAA

Haapai, Tonga (NFTL) 19-48S 174-21W 3M
Jun 25, 2022 - 05:00 PM EDT / 2022.06.25 2100 UTC
Wind: from the E (090 degrees) at 17 MPH (15 KT):0
Visibility: greater than 7 mile(s):0
Sky conditions: mostly clear
Temperature: 78 F (26 C)
Dew Point: 71 F (22 C)
Relative Humidity: 78%
Pressure (altimeter): 30.09 in. Hg (1019 hPa)
ob: NFTL 252100Z 09015KT 9999 FEW016 26/22 Q1019
cycle: 21

Station Type Date Time Source
NFTL TAF 2018/02/21 17:19 UTC NOAA

TAF NFTL 211605Z 2117/2208 12010KT 9999 SCT018

Example: see airport list